Villa Cavazos, Texas
Current Conditions -  °F | °C
As of 5:53 AM on Friday 24 Oct 2014 (Local Time) from KBRO Reporting Station
Broken Clouds Broken Clouds  
Wind Chill: 68°   Ceiling: 3000
Heat Index: 68°   Visibility: 7mi
Dew Point: 66°   Wind: 6mph
Humidity: 93%   Direction: 330°NNW
Pressure: 30.06"   Gusts: NA
Location:  26.0002°N, 97.5729°W
Report Text: KBRO 241053Z 33005KT 7SM BKN030 20/19 A3006 RMK AO2 SLP177 T02000189
Loading
Personal Weather Stations






























Interactive Weather Map
Tropical Storm Tracking
New forecast layout! Learn more

10-Day Weather Forecast

Advertisements
Track Severe Weather on mobile